createdAt,value
2017-07-01T00:01:40.820Z,24.70
2017-07-01T00:04:09.348Z,24.70
2017-07-01T00:06:37.500Z,24.70
2017-07-01T00:09:05.615Z,24.70
2017-07-01T00:11:33.727Z,24.70
2017-07-01T00:14:01.845Z,24.60
2017-07-01T00:16:29.967Z,24.70
2017-07-01T00:18:58.080Z,24.60
2017-07-01T00:21:26.764Z,24.70
2017-07-01T00:23:54.880Z,24.70
2017-07-01T00:26:22.985Z,24.70
2017-07-01T00:28:51.095Z,24.60
2017-07-01T00:31:19.204Z,24.70
2017-07-01T00:33:47.316Z,24.70
2017-07-01T00:36:15.444Z,24.70
2017-07-01T00:38:43.651Z,24.70
2017-07-01T00:41:11.765Z,24.70
2017-07-01T00:43:39.876Z,24.70
2017-07-01T00:46:07.992Z,24.70
2017-07-01T00:48:36.091Z,24.70
2017-07-01T00:51:04.320Z,24.80
2017-07-01T00:53:32.437Z,24.70
2017-07-01T00:56:00.541Z,24.80
2017-07-01T00:58:28.675Z,24.80
2017-07-01T01:00:56.774Z,24.90
2017-07-01T01:03:24.887Z,24.90
2017-07-01T01:05:53.003Z,25.00
2017-07-01T01:08:21.836Z,24.80
2017-07-01T01:10:49.943Z,24.90
2017-07-01T01:13:18.163Z,24.90
2017-07-01T01:15:46.325Z,24.90
2017-07-01T01:18:14.456Z,24.90
2017-07-01T01:20:42.568Z,24.90
2017-07-01T01:23:10.688Z,25.00
2017-07-01T01:25:38.813Z,25.00
2017-07-01T01:28:06.944Z,24.90
2017-07-01T01:30:35.088Z,25.00
2017-07-01T01:33:03.211Z,25.00
2017-07-01T01:35:31.299Z,25.00
2017-07-01T01:37:59.396Z,25.20
2017-07-01T01:40:27.496Z,25.20
2017-07-01T01:42:55.611Z,25.40
2017-07-01T01:45:23.735Z,25.40
2017-07-01T01:47:51.844Z,25.40
2017-07-01T01:50:19.956Z,25.40
2017-07-01T01:52:48.052Z,25.40
2017-07-01T01:55:16.172Z,25.40
2017-07-01T01:57:44.340Z,25.50
2017-07-01T02:00:12.473Z,25.40
2017-07-01T02:02:40.595Z,25.50
2017-07-01T02:05:08.723Z,25.60
2017-07-01T02:07:36.871Z,25.60
2017-07-01T02:10:05.023Z,25.70
2017-07-01T02:12:33.179Z,26.20
2017-07-01T02:15:01.415Z,25.80
2017-07-01T02:17:31.057Z,25.80
2017-07-01T02:19:59.920Z,25.80
2017-07-01T02:22:28.120Z,26.30
2017-07-01T02:24:56.336Z,25.90
2017-07-01T02:27:24.463Z,25.90
2017-07-01T02:29:52.665Z,25.90
2017-07-01T02:32:21.543Z,26.00
2017-07-01T02:34:53.061Z,26.00
2017-07-01T02:37:21.181Z,26.00
2017-07-01T02:39:50.596Z,26.00
2017-07-01T02:42:18.764Z,26.00
2017-07-01T02:44:47.824Z,26.10
2017-07-01T02:47:25.224Z,26.10
2017-07-01T02:49:53.805Z,26.00
2017-07-01T02:52:21.971Z,26.10
2017-07-01T02:54:59.076Z,26.10
2017-07-01T02:57:27.652Z,26.20
2017-07-01T02:59:55.764Z,26.20
2017-07-01T03:02:24.184Z,26.20
2017-07-01T03:04:53.180Z,26.20
2017-07-01T03:07:21.419Z,26.20
2017-07-01T03:09:49.572Z,26.20
2017-07-01T03:12:18.300Z,26.30
2017-07-01T03:14:46.416Z,26.20
2017-07-01T03:17:15.597Z,26.20
2017-07-01T03:19:43.717Z,26.20
2017-07-01T03:22:11.951Z,26.30
2017-07-01T03:24:40.624Z,26.30
2017-07-01T03:27:09.283Z,26.30
2017-07-01T03:29:38.088Z,26.30
2017-07-01T03:32:06.276Z,26.30
2017-07-01T03:34:35.388Z,26.30
2017-07-01T03:37:04.236Z,26.20
2017-07-01T03:39:41.348Z,26.30
2017-07-01T03:42:10.812Z,26.30
2017-07-01T03:44:39.150Z,26.20
2017-07-01T03:47:07.503Z,26.20
2017-07-01T03:49:35.658Z,26.70
2017-07-01T03:52:03.810Z,26.20
2017-07-01T03:54:33.124Z,26.20
2017-07-01T03:57:01.212Z,26.20
2017-07-01T03:59:29.411Z,26.70
2017-07-01T04:01:57.532Z,26.20
2017-07-01T04:04:25.684Z,26.60
2017-07-01T04:06:53.787Z,26.20
2017-07-01T04:09:21.899Z,26.20
2017-07-01T04:11:50.075Z,26.20
2017-07-01T04:14:18.356Z,26.20
2017-07-01T04:16:46.492Z,26.20
2017-07-01T04:19:14.744Z,26.20
2017-07-01T04:21:42.879Z,26.10
2017-07-01T04:24:11.815Z,26.20
2017-07-01T04:26:39.930Z,26.10
2017-07-01T04:29:12.829Z,26.10
2017-07-01T04:31:41.233Z,26.10
2017-07-01T04:34:09.599Z,26.10
2017-07-01T04:36:37.746Z,26.10
2017-07-01T04:39:06.039Z,26.10
2017-07-01T04:41:36.176Z,26.10
2017-07-01T04:45:07.308Z,26.10
2017-07-01T04:47:35.899Z,26.10
2017-07-01T04:50:04.388Z,26.20
2017-07-01T04:52:33.140Z,26.20
2017-07-01T04:55:01.292Z,26.20
2017-07-01T04:57:29.416Z,26.20
2017-07-01T04:59:57.568Z,26.20
2017-07-01T05:02:25.672Z,26.10
2017-07-01T05:04:53.796Z,26.00
2017-07-01T05:07:30.966Z,26.00
2017-07-01T05:09:59.219Z,26.00
2017-07-01T05:12:28.088Z,26.10
2017-07-01T05:14:56.215Z,26.10
2017-07-01T05:17:25.287Z,26.10
2017-07-01T05:19:54.144Z,26.00
2017-07-01T05:22:22.276Z,26.00
2017-07-01T05:24:50.400Z,25.90
2017-07-01T05:27:27.841Z,25.80
2017-07-01T05:29:56.006Z,25.80
2017-07-01T05:32:24.104Z,25.90
2017-07-01T05:35:00.407Z,25.90
2017-07-01T05:37:30.911Z,26.30
2017-07-01T05:39:59.036Z,25.90
2017-07-01T05:42:32.236Z,25.80
2017-07-01T05:45:00.392Z,25.90
2017-07-01T05:47:28.544Z,25.80
2017-07-01T05:49:56.683Z,25.90
2017-07-01T05:52:24.912Z,25.80
2017-07-01T05:54:53.040Z,25.80
2017-07-01T05:57:21.164Z,25.80
2017-07-01T05:59:49.371Z,25.80
2017-07-01T06:02:17.540Z,25.80
2017-07-01T06:04:45.660Z,25.80
2017-07-01T06:07:14.361Z,25.80
2017-07-01T06:09:51.540Z,25.80
2017-07-01T06:12:26.727Z,25.80
2017-07-01T06:14:55.379Z,25.80
2017-07-01T06:17:24.344Z,25.80
2017-07-01T06:19:52.460Z,25.70
2017-07-01T06:22:25.711Z,25.80
2017-07-01T06:24:53.812Z,25.70
2017-07-01T06:27:21.968Z,25.70
2017-07-01T06:29:50.304Z,25.70
2017-07-01T06:32:18.500Z,25.70
2017-07-01T06:34:55.604Z,25.70
2017-07-01T06:37:32.092Z,25.60
2017-07-01T06:40:00.359Z,25.60
2017-07-01T06:42:33.048Z,25.60
2017-07-01T06:45:01.228Z,25.50
2017-07-01T06:47:29.440Z,25.40
2017-07-01T06:49:58.464Z,25.50
2017-07-01T06:52:26.636Z,25.30
2017-07-01T06:54:54.803Z,25.50
2017-07-01T06:57:32.337Z,25.50
2017-07-01T07:00:00.549Z,25.80
2017-07-01T07:02:28.644Z,25.70
2017-07-01T07:04:56.820Z,25.40
2017-07-01T07:07:24.972Z,25.60
2017-07-01T07:09:53.102Z,25.40
2017-07-01T07:12:21.220Z,25.40
2017-07-01T07:14:49.381Z,25.60
2017-07-01T07:17:17.616Z,25.50
2017-07-01T07:19:45.764Z,25.50
2017-07-01T07:22:14.024Z,25.40
2017-07-01T07:24:42.132Z,25.50
2017-07-01T07:27:10.283Z,25.50
2017-07-01T07:32:16.151Z,25.30
2017-07-01T07:34:44.263Z,25.40
2017-07-01T07:37:13.040Z,25.40
2017-07-01T07:39:41.147Z,25.30
2017-07-01T07:42:09.256Z,25.30
2017-07-01T07:44:37.407Z,25.20
2017-07-01T07:47:05.503Z,25.20
2017-07-01T07:49:33.607Z,25.20
2017-07-01T07:52:01.700Z,25.10
2017-07-01T07:54:29.819Z,25.10
2017-07-01T07:56:57.951Z,25.10
2017-07-01T07:59:26.636Z,25.00
2017-07-01T08:03:19.292Z,25.00
2017-07-01T08:05:47.412Z,24.90
2017-07-01T08:08:15.541Z,25.10
2017-07-01T08:10:43.680Z,25.10
2017-07-01T08:13:11.836Z,25.00
2017-07-01T08:15:39.958Z,25.00
2017-07-01T08:18:08.074Z,24.90
2017-07-01T08:20:36.199Z,24.90
2017-07-01T08:23:04.291Z,24.80
2017-07-01T08:25:32.419Z,24.80
2017-07-01T08:28:00.559Z,24.70
2017-07-01T08:30:28.679Z,24.70
2017-07-01T08:32:56.792Z,24.70
2017-07-01T08:35:24.916Z,24.60
2017-07-01T08:37:53.127Z,24.60
2017-07-01T08:40:21.229Z,24.50
2017-07-01T08:42:49.345Z,24.50
2017-07-01T08:45:17.468Z,24.50
2017-07-01T08:47:45.580Z,24.50
2017-07-01T08:50:13.679Z,24.40
2017-07-01T08:52:41.792Z,24.40
2017-07-01T08:55:09.884Z,24.40
2017-07-01T08:57:37.987Z,24.40
2017-07-01T09:00:06.128Z,24.30
2017-07-01T09:02:34.263Z,24.30
2017-07-01T09:05:02.432Z,24.30
2017-07-01T09:07:30.551Z,24.30
2017-07-01T09:09:58.660Z,24.20
2017-07-01T09:12:26.774Z,24.70
2017-07-01T09:14:54.895Z,24.10
2017-07-01T09:17:23.000Z,24.10
2017-07-01T09:19:51.119Z,24.10
2017-07-01T09:22:19.298Z,24.00
2017-07-01T09:24:47.420Z,24.00
2017-07-01T09:27:15.534Z,24.40
2017-07-01T09:29:43.644Z,23.90
2017-07-01T09:32:11.744Z,23.90
2017-07-01T09:34:39.859Z,23.90
2017-07-01T09:37:07.964Z,23.80
2017-07-01T09:39:36.078Z,23.80
2017-07-01T09:42:04.199Z,23.80
2017-07-01T09:44:32.304Z,23.80
2017-07-01T09:47:00.416Z,23.70
2017-07-01T09:49:28.544Z,23.70
2017-07-01T09:51:56.655Z,23.70
2017-07-01T09:54:24.755Z,23.70
2017-07-01T09:56:52.883Z,23.60
2017-07-01T09:59:20.989Z,24.10
2017-07-01T10:01:49.799Z,23.50
2017-07-01T10:04:17.916Z,23.50
2017-07-01T10:06:46.047Z,23.50
2017-07-01T10:09:14.151Z,23.50
2017-07-01T10:11:42.277Z,23.50
2017-07-01T10:14:10.396Z,23.50
2017-07-01T10:16:38.500Z,23.40
2017-07-01T10:19:06.724Z,23.40
2017-07-01T10:21:34.852Z,23.40
2017-07-01T10:24:07.904Z,23.40
2017-07-01T10:26:36.496Z,23.20
2017-07-01T10:29:04.602Z,23.10
2017-07-01T10:31:32.712Z,23.20
2017-07-01T10:34:00.872Z,23.10
2017-07-01T10:36:29.016Z,22.90
2017-07-01T10:38:57.376Z,23.10
2017-07-01T10:41:25.495Z,22.70
2017-07-01T10:43:53.679Z,22.70
2017-07-01T10:46:22.204Z,22.70
2017-07-01T10:48:50.300Z,22.70
2017-07-01T10:51:18.596Z,22.50
2017-07-01T10:53:46.712Z,22.50
2017-07-01T10:56:14.820Z,22.50
2017-07-01T10:58:42.935Z,22.40
2017-07-01T11:01:11.044Z,22.30
2017-07-01T11:03:39.166Z,22.80
2017-07-01T11:06:07.272Z,22.20
2017-07-01T11:08:35.380Z,22.10
2017-07-01T11:11:03.492Z,22.00
2017-07-01T11:13:31.592Z,22.00
2017-07-01T11:15:59.716Z,21.90
2017-07-01T11:18:27.824Z,21.90
2017-07-01T11:20:56.068Z,21.80
2017-07-01T11:23:24.182Z,21.80
2017-07-01T11:25:52.295Z,21.60
2017-07-01T11:28:20.419Z,21.60
2017-07-01T11:30:48.543Z,21.60
2017-07-01T11:33:16.650Z,21.70
2017-07-01T11:35:44.772Z,21.60
2017-07-01T11:38:12.880Z,21.60
2017-07-01T11:43:14.119Z,21.50
2017-07-01T11:45:42.499Z,21.30
2017-07-01T11:48:10.600Z,21.30
2017-07-01T11:50:38.712Z,21.30
2017-07-01T11:53:06.807Z,21.10
2017-07-01T11:55:34.916Z,21.20
2017-07-01T11:58:03.012Z,21.10
2017-07-01T12:00:31.116Z,21.00
2017-07-01T12:02:59.237Z,20.80
2017-07-01T12:05:27.353Z,20.70
2017-07-01T12:07:55.464Z,20.60
2017-07-01T12:10:23.864Z,20.60
2017-07-01T12:12:51.976Z,20.50
2017-07-01T12:15:20.067Z,20.40
2017-07-01T12:17:48.173Z,20.40
2017-07-01T12:20:16.279Z,20.20
2017-07-01T12:22:44.387Z,20.20
2017-07-01T12:25:12.490Z,20.10
2017-07-01T12:27:40.616Z,20.10
2017-07-01T12:30:08.743Z,20.00
2017-07-01T12:32:36.848Z,19.80
2017-07-01T12:35:04.943Z,19.70
2017-07-01T12:37:33.059Z,19.70
2017-07-01T12:40:01.172Z,19.60
2017-07-01T12:42:29.368Z,19.60
2017-07-01T12:44:57.495Z,19.50
2017-07-01T12:47:25.619Z,19.40
2017-07-01T12:49:53.728Z,19.40
2017-07-01T12:52:21.904Z,19.30
2017-07-01T12:54:50.113Z,19.20
2017-07-01T12:57:18.220Z,19.20
2017-07-01T12:59:46.340Z,19.20
2017-07-01T13:02:14.476Z,19.10
2017-07-01T13:04:42.603Z,19.10
2017-07-01T13:07:10.712Z,19.00
2017-07-01T13:09:38.805Z,19.00
2017-07-01T13:12:06.980Z,19.00
2017-07-01T13:14:35.091Z,19.40
2017-07-01T13:17:03.211Z,18.90
2017-07-01T13:19:31.328Z,19.00
2017-07-01T13:21:59.427Z,19.00
2017-07-01T13:24:27.549Z,18.90
2017-07-01T13:26:55.684Z,19.40
2017-07-01T13:29:23.812Z,18.90
2017-07-01T13:31:51.916Z,18.80
2017-07-01T13:34:20.016Z,18.90
2017-07-01T13:36:48.155Z,18.90
2017-07-01T13:39:16.253Z,18.80
2017-07-01T13:41:44.420Z,18.80
2017-07-01T13:44:12.531Z,18.70
2017-07-01T13:46:40.693Z,18.80
2017-07-01T13:49:08.785Z,18.90
2017-07-01T13:51:36.975Z,18.80
2017-07-01T13:54:05.083Z,18.80
2017-07-01T13:56:33.187Z,18.80
2017-07-01T13:59:01.300Z,18.90
2017-07-01T14:01:29.404Z,18.90
2017-07-01T14:03:57.504Z,19.00
2017-07-01T14:06:25.596Z,19.20
2017-07-01T14:08:53.750Z,18.80
2017-07-01T14:11:21.871Z,18.80
2017-07-01T14:13:50.027Z,18.80
2017-07-01T14:16:18.199Z,18.90
2017-07-01T14:18:46.396Z,18.70
2017-07-01T14:21:14.500Z,18.70
2017-07-01T14:23:42.600Z,18.60
2017-07-01T14:26:10.703Z,18.70
2017-07-01T14:28:38.837Z,18.70
2017-07-01T14:31:06.944Z,18.70
2017-07-01T14:33:35.060Z,18.80
2017-07-01T14:36:03.163Z,18.80
2017-07-01T14:38:31.382Z,18.80
2017-07-01T14:40:59.513Z,18.70
2017-07-01T14:43:27.640Z,18.70
2017-07-01T14:45:55.744Z,18.70
2017-07-01T14:48:23.861Z,18.80
2017-07-01T14:50:52.352Z,18.90
2017-07-01T14:53:20.448Z,18.90
2017-07-01T14:55:49.650Z,18.90
2017-07-01T14:58:18.268Z,18.90
2017-07-01T15:00:46.348Z,18.90
2017-07-01T15:03:14.465Z,19.10
2017-07-01T15:05:42.572Z,19.00
2017-07-01T15:08:10.696Z,18.90
2017-07-01T15:10:38.799Z,19.20
2017-07-01T15:13:06.899Z,19.00
2017-07-01T15:15:35.013Z,19.00
2017-07-01T15:18:03.136Z,19.10
2017-07-01T15:20:31.236Z,19.20
2017-07-01T15:22:59.351Z,19.10
2017-07-01T15:25:27.455Z,19.20
2017-07-01T15:27:55.576Z,19.00
2017-07-01T15:30:23.676Z,18.90
2017-07-01T15:32:51.904Z,19.00
2017-07-01T15:35:20.029Z,19.10
2017-07-01T15:37:48.139Z,19.10
2017-07-01T15:40:16.264Z,19.00
2017-07-01T15:42:44.372Z,18.90
2017-07-01T15:45:12.499Z,19.00
2017-07-01T15:47:40.660Z,19.10
2017-07-01T15:50:08.767Z,18.80
2017-07-01T15:52:36.887Z,19.10
2017-07-01T15:55:09.964Z,19.20
2017-07-01T15:57:38.388Z,19.20
2017-07-01T16:00:06.501Z,19.20
2017-07-01T16:02:34.608Z,19.30
2017-07-01T16:05:02.741Z,19.30
2017-07-01T16:07:30.849Z,19.30
2017-07-01T16:09:58.978Z,19.30
2017-07-01T16:12:27.172Z,19.40
2017-07-01T16:14:55.308Z,19.40
2017-07-01T16:20:00.879Z,19.50
2017-07-01T16:22:29.247Z,19.50
2017-07-01T16:24:57.383Z,19.50
2017-07-01T16:27:25.487Z,19.50
2017-07-01T16:29:53.701Z,20.10
2017-07-01T16:32:21.813Z,19.70
2017-07-01T16:34:49.927Z,19.80
2017-07-01T16:37:18.059Z,19.70
2017-07-01T16:39:46.188Z,19.70
2017-07-01T16:42:14.288Z,19.80
2017-07-01T16:44:42.408Z,19.80
2017-07-01T16:47:10.572Z,19.90
2017-07-01T16:49:38.699Z,19.90
2017-07-01T16:52:07.178Z,19.80
2017-07-01T16:54:35.300Z,19.90
2017-07-01T16:57:03.415Z,19.90
2017-07-01T16:59:31.526Z,19.90
2017-07-01T17:01:59.655Z,20.00
2017-07-01T17:04:27.764Z,20.30
2017-07-01T17:06:55.884Z,20.00
2017-07-01T17:09:23.992Z,20.10
2017-07-01T17:11:52.091Z,20.10
2017-07-01T17:14:20.205Z,20.10
2017-07-01T17:16:48.315Z,20.20
2017-07-01T17:19:16.403Z,20.20
2017-07-01T17:21:44.584Z,20.10
2017-07-01T17:24:12.688Z,20.20
2017-07-01T17:26:40.893Z,20.20
2017-07-01T17:29:09.007Z,20.20
2017-07-01T17:31:37.116Z,20.30
2017-07-01T17:34:05.220Z,20.30
2017-07-01T17:36:38.192Z,20.80
2017-07-01T17:39:06.300Z,20.40
2017-07-01T17:41:34.676Z,20.40
2017-07-01T17:44:02.799Z,20.40
2017-07-01T17:46:30.935Z,20.40
2017-07-01T17:48:59.051Z,20.40
2017-07-01T17:51:27.266Z,20.50
2017-07-01T17:53:55.374Z,20.50
2017-07-01T17:56:23.571Z,20.50
2017-07-01T17:58:51.675Z,20.60
2017-07-01T18:01:19.783Z,20.60
2017-07-01T18:03:47.916Z,20.60
2017-07-01T18:06:16.023Z,21.10
2017-07-01T18:08:44.127Z,20.60
2017-07-01T18:11:12.244Z,20.70
2017-07-01T18:13:40.367Z,20.60
2017-07-01T18:16:08.492Z,20.70
2017-07-01T18:18:36.600Z,20.70
2017-07-01T18:21:04.739Z,20.80
2017-07-01T18:23:32.848Z,21.30
2017-07-01T18:26:00.952Z,20.80
2017-07-01T18:28:29.068Z,20.60
2017-07-01T18:31:02.435Z,20.90
2017-07-01T18:33:31.140Z,20.90
2017-07-01T18:35:59.260Z,21.00
2017-07-01T18:38:27.380Z,21.00
2017-07-01T18:40:55.491Z,21.00
2017-07-01T18:43:24.248Z,21.00
2017-07-01T18:45:52.353Z,21.00
2017-07-01T18:48:20.464Z,21.00
2017-07-01T18:50:48.685Z,21.10
2017-07-01T18:53:16.783Z,21.10
2017-07-01T18:55:44.899Z,21.20
2017-07-01T18:58:13.185Z,21.30
2017-07-01T19:00:41.264Z,21.20
2017-07-01T19:03:09.380Z,21.30
2017-07-01T19:05:37.465Z,21.20
2017-07-01T19:08:05.595Z,21.30
2017-07-01T19:10:33.716Z,21.30
2017-07-01T19:13:01.812Z,21.30
2017-07-01T19:15:29.923Z,21.40
2017-07-01T19:17:58.048Z,21.40
2017-07-01T19:20:26.757Z,21.40
2017-07-01T19:22:54.883Z,21.50
2017-07-01T19:25:23.036Z,21.40
2017-07-01T19:27:51.180Z,22.00
2017-07-01T19:30:19.279Z,21.40
2017-07-01T19:32:47.471Z,21.50
2017-07-01T19:35:15.623Z,21.50
2017-07-01T19:37:43.717Z,21.50
2017-07-01T19:40:11.828Z,21.50
2017-07-01T19:42:40.096Z,21.50
2017-07-01T19:45:13.423Z,21.50
2017-07-01T19:47:41.536Z,21.50
2017-07-01T19:50:09.647Z,21.60
2017-07-01T19:52:37.864Z,21.60
2017-07-01T19:55:05.971Z,21.60
2017-07-01T19:57:34.071Z,21.60
2017-07-01T20:00:02.220Z,21.90
2017-07-01T20:02:30.345Z,21.80
2017-07-01T20:04:58.466Z,22.00
2017-07-01T20:07:26.590Z,21.70
2017-07-01T20:09:54.699Z,22.20
2017-07-01T20:12:22.812Z,21.70
2017-07-01T20:14:50.940Z,21.70
2017-07-01T20:17:19.028Z,22.20
2017-07-01T20:19:47.131Z,21.80
2017-07-01T20:22:15.243Z,21.80
2017-07-01T20:24:43.339Z,21.90
2017-07-01T20:27:11.443Z,21.90
2017-07-01T20:29:39.536Z,22.00
2017-07-01T20:32:07.644Z,21.90
2017-07-01T20:34:35.748Z,22.00
2017-07-01T20:37:03.856Z,22.00
2017-07-01T20:39:31.968Z,22.00
2017-07-01T20:42:00.083Z,22.60
2017-07-01T20:44:28.192Z,22.10
2017-07-01T20:46:56.308Z,22.20
2017-07-01T20:49:24.741Z,22.30
2017-07-01T20:51:52.867Z,22.00
2017-07-01T20:54:20.983Z,22.40
2017-07-01T20:56:49.072Z,22.40
2017-07-01T20:59:17.196Z,22.50
2017-07-01T21:01:45.288Z,22.60
2017-07-01T21:04:13.387Z,22.70
2017-07-01T21:06:41.503Z,22.80
2017-07-01T21:09:09.630Z,22.80
2017-07-01T21:11:37.725Z,22.50
2017-07-01T21:14:05.895Z,22.90
2017-07-01T21:16:33.991Z,23.00
2017-07-01T21:19:02.124Z,23.00
2017-07-01T21:21:30.245Z,23.10
2017-07-01T21:23:58.364Z,23.10
2017-07-01T21:26:26.472Z,23.30
2017-07-01T21:28:54.580Z,23.30
2017-07-01T21:31:22.710Z,23.40
2017-07-01T21:33:50.815Z,23.40
2017-07-01T21:36:18.943Z,23.50
2017-07-01T21:38:47.068Z,23.70
2017-07-01T21:41:15.180Z,23.50
2017-07-01T21:43:43.303Z,23.50
2017-07-01T21:46:11.784Z,23.50
2017-07-01T21:48:39.883Z,23.60
2017-07-01T21:51:08.040Z,23.60
2017-07-01T21:53:36.150Z,23.70
2017-07-01T21:56:04.279Z,24.10
2017-07-01T21:58:32.417Z,23.70
2017-07-01T22:01:00.539Z,23.80
2017-07-01T22:03:28.636Z,23.80
2017-07-01T22:05:56.748Z,23.90
2017-07-01T22:08:24.843Z,23.90
2017-07-01T22:10:52.952Z,23.90
2017-07-01T22:13:21.126Z,23.90
2017-07-01T22:15:49.259Z,23.90
2017-07-01T22:18:17.428Z,24.00
2017-07-01T22:20:45.630Z,24.00
2017-07-01T22:23:14.665Z,24.00
2017-07-01T22:25:42.793Z,24.00
2017-07-01T22:28:10.896Z,24.00
2017-07-01T22:30:38.987Z,24.10
2017-07-01T22:33:07.095Z,24.00
2017-07-01T22:35:35.292Z,24.00
2017-07-01T22:38:03.416Z,24.00
2017-07-01T22:40:32.091Z,24.00
2017-07-01T22:45:37.631Z,24.00
2017-07-01T22:48:06.027Z,24.10
2017-07-01T22:50:34.144Z,24.00
2017-07-01T22:53:02.248Z,24.00
2017-07-01T22:55:30.384Z,24.10
2017-07-01T22:57:58.593Z,24.00
2017-07-01T23:00:26.700Z,24.10
2017-07-01T23:02:54.887Z,24.10
2017-07-01T23:05:22.996Z,24.10
2017-07-01T23:07:51.115Z,24.10
2017-07-01T23:10:19.232Z,24.10
2017-07-01T23:12:47.363Z,24.10
2017-07-01T23:15:15.468Z,24.10
2017-07-01T23:17:43.564Z,24.10
2017-07-01T23:20:11.692Z,24.10
2017-07-01T23:22:39.803Z,24.10
2017-07-01T23:25:07.899Z,24.10
2017-07-01T23:27:36.013Z,24.10
2017-07-01T23:30:04.120Z,24.10
2017-07-01T23:32:32.316Z,24.10
2017-07-01T23:35:00.437Z,24.10
2017-07-01T23:37:28.543Z,24.20
2017-07-01T23:39:56.660Z,24.20
2017-07-01T23:42:24.789Z,24.10
2017-07-01T23:44:52.885Z,24.10
2017-07-01T23:47:20.992Z,24.10
2017-07-01T23:49:49.102Z,24.10
2017-07-01T23:52:17.204Z,24.10
2017-07-01T23:54:45.319Z,24.10
2017-07-01T23:57:13.451Z,24.20
2017-07-01T23:59:41.563Z,24.10
